Terminal Aerodrome Forecast
Issued by NWS

Home | Current Version | Previous Version | Text Only | Print | Product List | Glossary On
Versions: 1 2 3 4 5 6 7 8 9 10 11 12 13 14 15
000
FTUS43 KGRB 181100
TAFMTW
TAF
KMTW 181128Z 1812/1912 02007KT P6SM OVC015
     FM181600 06007KT P6SM SCT025 SCT050
     FM182300 09003KT P6SM SCT050 SCT090=

USA.gov is the U.S. government's official web portal to all federal, state and local government web resources and services.